sensor_id;sensor_type;location;lat;lon;timestamp;temperature;humidity
52787;DHT22;38661;53.152;5.846;2024-01-07T00:00:15;0.70;94.60
52787;DHT22;38661;53.152;5.846;2024-01-07T00:02:41;0.60;94.30
52787;DHT22;38661;53.152;5.846;2024-01-07T00:05:07;0.70;94.50
52787;DHT22;38661;53.152;5.846;2024-01-07T00:07:33;0.70;94.40
52787;DHT22;38661;53.152;5.846;2024-01-07T00:09:58;0.70;94.30
52787;DHT22;38661;53.152;5.846;2024-01-07T00:12:24;0.80;94.40
52787;DHT22;38661;53.152;5.846;2024-01-07T00:14:50;0.70;93.80
52787;DHT22;38661;53.152;5.846;2024-01-07T00:17:16;0.70;94.10
52787;DHT22;38661;53.152;5.846;2024-01-07T00:19:42;0.70;94.10
52787;DHT22;38661;53.152;5.846;2024-01-07T00:22:07;0.70;94.00
52787;DHT22;38661;53.152;5.846;2024-01-07T00:24:33;0.70;94.00
52787;DHT22;38661;53.152;5.846;2024-01-07T00:26:59;0.70;93.80
52787;DHT22;38661;53.152;5.846;2024-01-07T00:29:25;0.70;94.00
52787;DHT22;38661;53.152;5.846;2024-01-07T00:31:50;0.70;94.20
52787;DHT22;38661;53.152;5.846;2024-01-07T00:34:16;0.80;94.00
52787;DHT22;38661;53.152;5.846;2024-01-07T00:36:42;0.70;94.00
52787;DHT22;38661;53.152;5.846;2024-01-07T00:39:08;0.70;93.90
52787;DHT22;38661;53.152;5.846;2024-01-07T00:41:33;0.70;93.90
52787;DHT22;38661;53.152;5.846;2024-01-07T00:43:59;0.70;93.70
52787;DHT22;38661;53.152;5.846;2024-01-07T00:46:24;0.60;93.60
52787;DHT22;38661;53.152;5.846;2024-01-07T00:48:50;0.60;93.70
52787;DHT22;38661;53.152;5.846;2024-01-07T00:51:16;0.70;93.90
52787;DHT22;38661;53.152;5.846;2024-01-07T00:53:42;0.60;93.30
52787;DHT22;38661;53.152;5.846;2024-01-07T00:56:07;0.50;93.30
52787;DHT22;38661;53.152;5.846;2024-01-07T00:58:33;0.50;93.30
52787;DHT22;38661;53.152;5.846;2024-01-07T01:00:59;0.60;93.50
52787;DHT22;38661;53.152;5.846;2024-01-07T01:03:26;0.60;93.60
52787;DHT22;38661;53.152;5.846;2024-01-07T01:05:52;0.60;93.40
52787;DHT22;38661;53.152;5.846;2024-01-07T01:08:18;0.60;93.50
52787;DHT22;38661;53.152;5.846;2024-01-07T01:10:44;0.50;93.50
52787;DHT22;38661;53.152;5.846;2024-01-07T01:13:09;0.60;93.40
52787;DHT22;38661;53.152;5.846;2024-01-07T01:15:35;0.50;93.40
52787;DHT22;38661;53.152;5.846;2024-01-07T01:18:01;0.60;93.60
52787;DHT22;38661;53.152;5.846;2024-01-07T01:20:27;0.60;93.60
52787;DHT22;38661;53.152;5.846;2024-01-07T01:22:52;0.50;93.40
52787;DHT22;38661;53.152;5.846;2024-01-07T01:25:18;0.50;93.40
52787;DHT22;38661;53.152;5.846;2024-01-07T01:27:44;0.60;93.80
52787;DHT22;38661;53.152;5.846;2024-01-07T01:30:11;0.60;93.60
52787;DHT22;38661;53.152;5.846;2024-01-07T01:32:36;0.60;93.60
52787;DHT22;38661;53.152;5.846;2024-01-07T01:35:02;0.60;93.60
52787;DHT22;38661;53.152;5.846;2024-01-07T01:37:29;0.60;93.70
52787;DHT22;38661;53.152;5.846;2024-01-07T01:39:58;0.60;93.60
52787;DHT22;38661;53.152;5.846;2024-01-07T01:42:24;0.60;93.60
52787;DHT22;38661;53.152;5.846;2024-01-07T01:44:50;0.60;93.70
52787;DHT22;38661;53.152;5.846;2024-01-07T01:47:16;0.60;93.40
52787;DHT22;38661;53.152;5.846;2024-01-07T01:49:42;0.60;93.30
52787;DHT22;38661;53.152;5.846;2024-01-07T01:52:09;0.50;93.50
52787;DHT22;38661;53.152;5.846;2024-01-07T01:54:35;0.50;93.50
52787;DHT22;38661;53.152;5.846;2024-01-07T01:57:01;0.50;93.60
52787;DHT22;38661;53.152;5.846;2024-01-07T01:59:28;0.50;93.90
52787;DHT22;38661;53.152;5.846;2024-01-07T02:01:54;0.60;93.90
52787;DHT22;38661;53.152;5.846;2024-01-07T02:04:20;0.60;94.00
52787;DHT22;38661;53.152;5.846;2024-01-07T02:06:46;0.60;93.90
52787;DHT22;38661;53.152;5.846;2024-01-07T02:09:12;0.60;93.90
52787;DHT22;38661;53.152;5.846;2024-01-07T02:11:38;0.60;93.90
52787;DHT22;38661;53.152;5.846;2024-01-07T02:14:04;0.60;93.90
52787;DHT22;38661;53.152;5.846;2024-01-07T02:16:29;0.60;93.90
52787;DHT22;38661;53.152;5.846;2024-01-07T02:18:55;0.60;94.00
52787;DHT22;38661;53.152;5.846;2024-01-07T02:21:21;0.60;94.00
52787;DHT22;38661;53.152;5.846;2024-01-07T02:23:46;0.60;94.10
52787;DHT22;38661;53.152;5.846;2024-01-07T02:26:12;0.60;94.00
52787;DHT22;38661;53.152;5.846;2024-01-07T02:28:38;0.60;94.00
52787;DHT22;38661;53.152;5.846;2024-01-07T02:31:03;0.60;94.00
52787;DHT22;38661;53.152;5.846;2024-01-07T02:33:29;0.60;94.00
52787;DHT22;38661;53.152;5.846;2024-01-07T02:35:56;0.60;93.80
52787;DHT22;38661;53.152;5.846;2024-01-07T02:38:22;0.60;93.90
52787;DHT22;38661;53.152;5.846;2024-01-07T02:40:48;0.60;94.00
52787;DHT22;38661;53.152;5.846;2024-01-07T02:43:13;0.60;93.70
52787;DHT22;38661;53.152;5.846;2024-01-07T02:45:39;0.50;93.90
52787;DHT22;38661;53.152;5.846;2024-01-07T02:48:05;0.40;93.70
52787;DHT22;38661;53.152;5.846;2024-01-07T02:50:32;0.40;93.70
52787;DHT22;38661;53.152;5.846;2024-01-07T02:52:57;0.40;93.80
52787;DHT22;38661;53.152;5.846;2024-01-07T02:55:23;0.40;93.80
52787;DHT22;38661;53.152;5.846;2024-01-07T02:57:49;0.40;93.90
52787;DHT22;38661;53.152;5.846;2024-01-07T03:00:15;0.50;93.80
52787;DHT22;38661;53.152;5.846;2024-01-07T03:02:40;0.40;93.60
52787;DHT22;38661;53.152;5.846;2024-01-07T03:05:06;0.30;93.60
52787;DHT22;38661;53.152;5.846;2024-01-07T03:07:32;0.40;93.90
52787;DHT22;38661;53.152;5.846;2024-01-07T03:09:58;0.40;93.70
52787;DHT22;38661;53.152;5.846;2024-01-07T03:12:23;0.40;93.90
52787;DHT22;38661;53.152;5.846;2024-01-07T03:14:49;0.40;93.50
52787;DHT22;38661;53.152;5.846;2024-01-07T03:17:15;0.30;93.50
52787;DHT22;38661;53.152;5.846;2024-01-07T03:19:42;0.30;93.50
52787;DHT22;38661;53.152;5.846;2024-01-07T03:22:08;0.30;93.50
52787;DHT22;38661;53.152;5.846;2024-01-07T03:24:34;0.40;93.60
52787;DHT22;38661;53.152;5.846;2024-01-07T03:27:00;0.40;93.70
52787;DHT22;38661;53.152;5.846;2024-01-07T03:29:25;0.40;93.60
52787;DHT22;38661;53.152;5.846;2024-01-07T03:31:51;0.50;93.80
52787;DHT22;38661;53.152;5.846;2024-01-07T03:34:18;0.50;93.70
52787;DHT22;38661;53.152;5.846;2024-01-07T03:36:44;0.50;93.80
52787;DHT22;38661;53.152;5.846;2024-01-07T03:39:10;0.50;93.80
52787;DHT22;38661;53.152;5.846;2024-01-07T03:41:35;0.50;93.70
52787;DHT22;38661;53.152;5.846;2024-01-07T03:44:01;0.50;93.70
52787;DHT22;38661;53.152;5.846;2024-01-07T03:46:27;0.50;93.60
52787;DHT22;38661;53.152;5.846;2024-01-07T03:48:53;0.50;93.60
52787;DHT22;38661;53.152;5.846;2024-01-07T03:51:19;0.60;93.90
52787;DHT22;38661;53.152;5.846;2024-01-07T03:53:44;0.60;93.50
52787;DHT22;38661;53.152;5.846;2024-01-07T03:56:10;0.50;93.50
52787;DHT22;38661;53.152;5.846;2024-01-07T03:58:36;0.50;93.30
52787;DHT22;38661;53.152;5.846;2024-01-07T04:01:01;0.40;92.80
52787;DHT22;38661;53.152;5.846;2024-01-07T04:03:27;0.50;93.50
52787;DHT22;38661;53.152;5.846;2024-01-07T04:05:53;0.50;93.10
52787;DHT22;38661;53.152;5.846;2024-01-07T04:08:18;0.50;93.20
52787;DHT22;38661;53.152;5.846;2024-01-07T04:10:44;0.50;93.20
52787;DHT22;38661;53.152;5.846;2024-01-07T04:13:10;0.50;93.20
52787;DHT22;38661;53.152;5.846;2024-01-07T04:15:36;0.50;92.80
52787;DHT22;38661;53.152;5.846;2024-01-07T04:18:02;0.60;93.10
52787;DHT22;38661;53.152;5.846;2024-01-07T04:20:29;0.60;93.00
52787;DHT22;38661;53.152;5.846;2024-01-07T04:22:55;0.60;92.90
52787;DHT22;38661;53.152;5.846;2024-01-07T04:25:21;0.50;92.00
52787;DHT22;38661;53.152;5.846;2024-01-07T04:27:46;0.50;91.90
52787;DHT22;38661;53.152;5.846;2024-01-07T04:30:12;0.50;92.30
52787;DHT22;38661;53.152;5.846;2024-01-07T04:32:38;0.50;92.00
52787;DHT22;38661;53.152;5.846;2024-01-07T04:35:04;0.40;91.40
52787;DHT22;38661;53.152;5.846;2024-01-07T04:37:29;0.40;91.40
52787;DHT22;38661;53.152;5.846;2024-01-07T04:39:55;0.40;91.50
52787;DHT22;38661;53.152;5.846;2024-01-07T04:42:21;0.50;91.90
52787;DHT22;38661;53.152;5.846;2024-01-07T04:44:47;0.50;91.90
52787;DHT22;38661;53.152;5.846;2024-01-07T04:47:33;0.40;91.40
52787;DHT22;38661;53.152;5.846;2024-01-07T04:50:03;0.50;92.10
52787;DHT22;38661;53.152;5.846;2024-01-07T04:52:29;0.50;91.80
52787;DHT22;38661;53.152;5.846;2024-01-07T04:54:55;0.50;91.70
52787;DHT22;38661;53.152;5.846;2024-01-07T04:57:21;0.60;92.20
52787;DHT22;38661;53.152;5.846;2024-01-07T04:59:49;0.60;91.50
52787;DHT22;38661;53.152;5.846;2024-01-07T05:02:14;0.60;92.00
52787;DHT22;38661;53.152;5.846;2024-01-07T05:04:41;0.60;92.20
52787;DHT22;38661;53.152;5.846;2024-01-07T05:07:07;0.60;92.10
52787;DHT22;38661;53.152;5.846;2024-01-07T05:09:32;0.50;91.50
52787;DHT22;38661;53.152;5.846;2024-01-07T05:11:59;0.50;91.80
52787;DHT22;38661;53.152;5.846;2024-01-07T05:14:24;0.50;91.70
52787;DHT22;38661;53.152;5.846;2024-01-07T05:16:50;0.50;91.40
52787;DHT22;38661;53.152;5.846;2024-01-07T05:19:16;0.50;91.20
52787;DHT22;38661;53.152;5.846;2024-01-07T05:21:41;0.50;91.20
52787;DHT22;38661;53.152;5.846;2024-01-07T05:24:07;0.50;90.90
52787;DHT22;38661;53.152;5.846;2024-01-07T05:26:43;0.40;90.90
52787;DHT22;38661;53.152;5.846;2024-01-07T05:29:09;0.50;91.00
52787;DHT22;38661;53.152;5.846;2024-01-07T05:31:35;0.40;90.90
52787;DHT22;38661;53.152;5.846;2024-01-07T05:34:01;0.40;90.50
52787;DHT22;38661;53.152;5.846;2024-01-07T05:36:27;0.40;90.40
52787;DHT22;38661;53.152;5.846;2024-01-07T05:38:52;0.40;90.60
52787;DHT22;38661;53.152;5.846;2024-01-07T05:41:18;0.40;90.20
52787;DHT22;38661;53.152;5.846;2024-01-07T05:43:44;0.40;90.40
52787;DHT22;38661;53.152;5.846;2024-01-07T05:46:10;0.40;89.70
52787;DHT22;38661;53.152;5.846;2024-01-07T05:48:43;0.40;90.20
52787;DHT22;38661;53.152;5.846;2024-01-07T05:51:10;0.40;90.20
52787;DHT22;38661;53.152;5.846;2024-01-07T05:53:35;0.50;90.90
52787;DHT22;38661;53.152;5.846;2024-01-07T05:56:01;0.50;91.00
52787;DHT22;38661;53.152;5.846;2024-01-07T05:58:28;0.50;90.50
52787;DHT22;38661;53.152;5.846;2024-01-07T06:00:54;0.50;90.50
52787;DHT22;38661;53.152;5.846;2024-01-07T06:03:19;0.50;90.30
52787;DHT22;38661;53.152;5.846;2024-01-07T06:05:45;0.50;89.80
52787;DHT22;38661;53.152;5.846;2024-01-07T06:08:11;0.50;89.40
52787;DHT22;38661;53.152;5.846;2024-01-07T06:10:39;0.50;89.80
52787;DHT22;38661;53.152;5.846;2024-01-07T06:13:05;0.50;89.70
52787;DHT22;38661;53.152;5.846;2024-01-07T06:15:30;0.50;90.20
52787;DHT22;38661;53.152;5.846;2024-01-07T06:17:56;0.50;89.90
52787;DHT22;38661;53.152;5.846;2024-01-07T06:20:22;0.50;89.20
52787;DHT22;38661;53.152;5.846;2024-01-07T06:22:48;0.50;89.50
52787;DHT22;38661;53.152;5.846;2024-01-07T06:25:14;0.50;89.60
52787;DHT22;38661;53.152;5.846;2024-01-07T06:27:39;0.60;90.50
52787;DHT22;38661;53.152;5.846;2024-01-07T06:30:05;0.50;88.30
52787;DHT22;38661;53.152;5.846;2024-01-07T06:32:31;0.40;88.30
52787;DHT22;38661;53.152;5.846;2024-01-07T06:35:01;0.40;88.60
52787;DHT22;38661;53.152;5.846;2024-01-07T06:37:27;0.50;88.80
52787;DHT22;38661;53.152;5.846;2024-01-07T06:39:55;0.50;89.10
52787;DHT22;38661;53.152;5.846;2024-01-07T06:42:20;0.50;89.10
52787;DHT22;38661;53.152;5.846;2024-01-07T06:44:46;0.50;89.50
52787;DHT22;38661;53.152;5.846;2024-01-07T06:47:12;0.50;88.80
52787;DHT22;38661;53.152;5.846;2024-01-07T06:49:38;0.50;88.40
52787;DHT22;38661;53.152;5.846;2024-01-07T06:52:05;0.50;88.10
52787;DHT22;38661;53.152;5.846;2024-01-07T06:54:30;0.50;88.50
52787;DHT22;38661;53.152;5.846;2024-01-07T06:56:56;0.40;87.90
52787;DHT22;38661;53.152;5.846;2024-01-07T06:59:22;0.50;88.60
52787;DHT22;38661;53.152;5.846;2024-01-07T07:01:47;0.50;89.00
52787;DHT22;38661;53.152;5.846;2024-01-07T07:04:13;0.50;88.50
52787;DHT22;38661;53.152;5.846;2024-01-07T07:06:39;0.40;88.30
52787;DHT22;38661;53.152;5.846;2024-01-07T07:09:05;0.40;88.10
52787;DHT22;38661;53.152;5.846;2024-01-07T07:11:31;0.40;88.20
52787;DHT22;38661;53.152;5.846;2024-01-07T07:13:57;0.40;88.40
52787;DHT22;38661;53.152;5.846;2024-01-07T07:16:22;0.50;88.40
52787;DHT22;38661;53.152;5.846;2024-01-07T07:18:48;0.40;88.50
52787;DHT22;38661;53.152;5.846;2024-01-07T07:21:14;0.40;88.50
52787;DHT22;38661;53.152;5.846;2024-01-07T07:23:39;0.40;87.70
52787;DHT22;38661;53.152;5.846;2024-01-07T07:26:05;0.40;87.60
52787;DHT22;38661;53.152;5.846;2024-01-07T07:28:32;0.40;88.10
52787;DHT22;38661;53.152;5.846;2024-01-07T07:30:58;0.40;88.40
52787;DHT22;38661;53.152;5.846;2024-01-07T07:33:23;0.40;87.70
52787;DHT22;38661;53.152;5.846;2024-01-07T07:35:50;0.40;87.80
52787;DHT22;38661;53.152;5.846;2024-01-07T07:38:15;0.40;88.20
52787;DHT22;38661;53.152;5.846;2024-01-07T07:40:41;0.40;88.00
52787;DHT22;38661;53.152;5.846;2024-01-07T07:43:08;0.50;88.70
52787;DHT22;38661;53.152;5.846;2024-01-07T07:45:33;0.40;88.20
52787;DHT22;38661;53.152;5.846;2024-01-07T07:47:59;0.50;88.60
52787;DHT22;38661;53.152;5.846;2024-01-07T07:50:25;0.40;88.50
52787;DHT22;38661;53.152;5.846;2024-01-07T07:52:51;0.40;88.10
52787;DHT22;38661;53.152;5.846;2024-01-07T07:55:17;0.40;88.10
52787;DHT22;38661;53.152;5.846;2024-01-07T07:57:42;0.40;88.40
52787;DHT22;38661;53.152;5.846;2024-01-07T08:00:08;0.40;88.30
52787;DHT22;38661;53.152;5.846;2024-01-07T08:02:38;0.50;88.70
52787;DHT22;38661;53.152;5.846;2024-01-07T08:05:06;0.40;88.50
52787;DHT22;38661;53.152;5.846;2024-01-07T08:07:31;0.50;88.90
52787;DHT22;38661;53.152;5.846;2024-01-07T08:09:57;0.40;89.00
52787;DHT22;38661;53.152;5.846;2024-01-07T08:12:23;0.30;88.50
52787;DHT22;38661;53.152;5.846;2024-01-07T08:14:49;0.30;87.90
52787;DHT22;38661;53.152;5.846;2024-01-07T08:17:15;0.20;88.40
52787;DHT22;38661;53.152;5.846;2024-01-07T08:19:41;0.30;89.20
52787;DHT22;38661;53.152;5.846;2024-01-07T08:22:06;0.10;88.40
52787;DHT22;38661;53.152;5.846;2024-01-07T08:24:32;0.10;88.00
52787;DHT22;38661;53.152;5.846;2024-01-07T08:26:58;0.10;88.30
52787;DHT22;38661;53.152;5.846;2024-01-07T08:29:24;0.10;88.50
52787;DHT22;38661;53.152;5.846;2024-01-07T08:31:50;0.00;88.40
52787;DHT22;38661;53.152;5.846;2024-01-07T08:34:16;0.00;88.00
52787;DHT22;38661;53.152;5.846;2024-01-07T08:36:42;0.00;88.30
52787;DHT22;38661;53.152;5.846;2024-01-07T08:39:08;0.00;88.00
52787;DHT22;38661;53.152;5.846;2024-01-07T08:41:33;0.00;88.20
52787;DHT22;38661;53.152;5.846;2024-01-07T08:43:59;0.00;88.40
52787;DHT22;38661;53.152;5.846;2024-01-07T08:46:25;-3276.70;88.40
52787;DHT22;38661;53.152;5.846;2024-01-07T08:48:50;-3276.70;88.40
52787;DHT22;38661;53.152;5.846;2024-01-07T08:51:16;0.00;88.70
52787;DHT22;38661;53.152;5.846;2024-01-07T08:53:42;-3276.70;88.60
52787;DHT22;38661;53.152;5.846;2024-01-07T08:56:08;0.00;88.70
52787;DHT22;38661;53.152;5.846;2024-01-07T08:58:34;0.00;88.50
52787;DHT22;38661;53.152;5.846;2024-01-07T09:01:00;0.00;88.80
52787;DHT22;38661;53.152;5.846;2024-01-07T09:03:25;0.10;89.00
52787;DHT22;38661;53.152;5.846;2024-01-07T09:05:51;0.10;88.50
52787;DHT22;38661;53.152;5.846;2024-01-07T09:08:17;0.20;88.90
52787;DHT22;38661;53.152;5.846;2024-01-07T09:10:43;0.30;89.10
52787;DHT22;38661;53.152;5.846;2024-01-07T09:13:09;0.20;88.10
52787;DHT22;38661;53.152;5.846;2024-01-07T09:15:35;0.20;88.20
52787;DHT22;38661;53.152;5.846;2024-01-07T09:18:00;0.30;88.70
52787;DHT22;38661;53.152;5.846;2024-01-07T09:20:26;0.30;87.20
52787;DHT22;38661;53.152;5.846;2024-01-07T09:22:52;0.20;86.60
52787;DHT22;38661;53.152;5.846;2024-01-07T09:25:17;0.30;86.80
52787;DHT22;38661;53.152;5.846;2024-01-07T09:27:43;0.30;86.10
52787;DHT22;38661;53.152;5.846;2024-01-07T09:30:09;0.30;87.00
52787;DHT22;38661;53.152;5.846;2024-01-07T09:32:41;0.40;86.70
52787;DHT22;38661;53.152;5.846;2024-01-07T09:35:07;0.30;86.10
52787;DHT22;38661;53.152;5.846;2024-01-07T09:37:33;0.30;86.20
52787;DHT22;38661;53.152;5.846;2024-01-07T09:39:59;0.40;85.80
52787;DHT22;38661;53.152;5.846;2024-01-07T09:42:24;0.40;86.70
52787;DHT22;38661;53.152;5.846;2024-01-07T09:44:50;0.50;86.60
52787;DHT22;38661;53.152;5.846;2024-01-07T09:47:16;0.50;87.10
52787;DHT22;38661;53.152;5.846;2024-01-07T09:49:43;0.50;86.60
52787;DHT22;38661;53.152;5.846;2024-01-07T09:52:10;0.60;86.90
52787;DHT22;38661;53.152;5.846;2024-01-07T09:54:37;0.60;87.20
52787;DHT22;38661;53.152;5.846;2024-01-07T09:57:07;0.60;86.30
52787;DHT22;38661;53.152;5.846;2024-01-07T09:59:34;0.60;86.80
52787;DHT22;38661;53.152;5.846;2024-01-07T10:02:01;0.70;86.90
52787;DHT22;38661;53.152;5.846;2024-01-07T10:04:27;0.60;86.60
52787;DHT22;38661;53.152;5.846;2024-01-07T10:06:57;0.60;86.20
52787;DHT22;38661;53.152;5.846;2024-01-07T10:09:44;0.70;86.80
52787;DHT22;38661;53.152;5.846;2024-01-07T10:12:09;0.70;86.50
52787;DHT22;38661;53.152;5.846;2024-01-07T10:14:35;0.70;85.90
52787;DHT22;38661;53.152;5.846;2024-01-07T10:17:01;0.80;86.80
52787;DHT22;38661;53.152;5.846;2024-01-07T10:19:26;0.80;86.30
52787;DHT22;38661;53.152;5.846;2024-01-07T10:24:26;0.80;86.00
52787;DHT22;38661;53.152;5.846;2024-01-07T10:26:52;0.80;86.30
52787;DHT22;38661;53.152;5.846;2024-01-07T10:29:18;0.80;86.00
52787;DHT22;38661;53.152;5.846;2024-01-07T10:31:43;0.80;85.30
52787;DHT22;38661;53.152;5.846;2024-01-07T10:34:10;0.80;85.40
52787;DHT22;38661;53.152;5.846;2024-01-07T10:36:36;0.90;85.90
52787;DHT22;38661;53.152;5.846;2024-01-07T10:39:03;0.90;86.30
52787;DHT22;38661;53.152;5.846;2024-01-07T10:41:29;0.90;85.80
52787;DHT22;38661;53.152;5.846;2024-01-07T10:43:55;0.90;85.30
52787;DHT22;38661;53.152;5.846;2024-01-07T10:46:21;1.00;85.90
52787;DHT22;38661;53.152;5.846;2024-01-07T10:48:55;1.00;86.50
52787;DHT22;38661;53.152;5.846;2024-01-07T10:51:24;1.00;86.40
52787;DHT22;38661;53.152;5.846;2024-01-07T10:53:52;1.10;85.90
52787;DHT22;38661;53.152;5.846;2024-01-07T10:56:23;1.10;85.60
52787;DHT22;38661;53.152;5.846;2024-01-07T10:58:54;1.10;85.60
52787;DHT22;38661;53.152;5.846;2024-01-07T11:01:20;1.20;86.10
52787;DHT22;38661;53.152;5.846;2024-01-07T11:06:51;1.30;85.20
52787;DHT22;38661;53.152;5.846;2024-01-07T11:09:43;1.40;85.50
52787;DHT22;38661;53.152;5.846;2024-01-07T11:12:11;1.40;84.60
52787;DHT22;38661;53.152;5.846;2024-01-07T11:14:41;1.50;83.80
52787;DHT22;38661;53.152;5.846;2024-01-07T11:17:11;1.60;84.60
52787;DHT22;38661;53.152;5.846;2024-01-07T11:19:52;1.80;84.60
52787;DHT22;38661;53.152;5.846;2024-01-07T11:24:50;2.10;85.60
52787;DHT22;38661;53.152;5.846;2024-01-07T11:27:16;2.10;84.90
52787;DHT22;38661;53.152;5.846;2024-01-07T11:29:41;2.20;83.50
52787;DHT22;38661;53.152;5.846;2024-01-07T11:32:07;2.30;82.10
52787;DHT22;38661;53.152;5.846;2024-01-07T11:34:41;2.40;83.80
52787;DHT22;38661;53.152;5.846;2024-01-07T11:37:10;2.50;84.90
52787;DHT22;38661;53.152;5.846;2024-01-07T11:39:37;2.50;84.40
52787;DHT22;38661;53.152;5.846;2024-01-07T11:42:06;2.60;83.90
52787;DHT22;38661;53.152;5.846;2024-01-07T11:44:34;2.60;82.40
52787;DHT22;38661;53.152;5.846;2024-01-07T11:47:03;2.80;83.70
52787;DHT22;38661;53.152;5.846;2024-01-07T11:49:29;3.00;83.30
52787;DHT22;38661;53.152;5.846;2024-01-07T11:51:55;3.10;83.50
52787;DHT22;38661;53.152;5.846;2024-01-07T11:54:20;3.30;83.50
52787;DHT22;38661;53.152;5.846;2024-01-07T11:56:46;3.40;80.70
52787;DHT22;38661;53.152;5.846;2024-01-07T11:59:12;3.60;81.10
52787;DHT22;38661;53.152;5.846;2024-01-07T12:01:37;3.70;79.50
52787;DHT22;38661;53.152;5.846;2024-01-07T12:04:03;3.90;81.00
52787;DHT22;38661;53.152;5.846;2024-01-07T12:06:29;4.00;77.50
52787;DHT22;38661;53.152;5.846;2024-01-07T12:08:55;4.00;80.80
52787;DHT22;38661;53.152;5.846;2024-01-07T12:11:21;4.00;78.90
52787;DHT22;38661;53.152;5.846;2024-01-07T12:13:47;4.20;78.90
52787;DHT22;38661;53.152;5.846;2024-01-07T12:16:14;4.30;78.30
52787;DHT22;38661;53.152;5.846;2024-01-07T12:18:40;4.40;77.00
52787;DHT22;38661;53.152;5.846;2024-01-07T12:21:06;4.60;79.70
52787;DHT22;38661;53.152;5.846;2024-01-07T12:23:36;4.60;78.70
52787;DHT22;38661;53.152;5.846;2024-01-07T12:26:08;4.70;77.50
52787;DHT22;38661;53.152;5.846;2024-01-07T12:28:34;4.80;76.60
52787;DHT22;38661;53.152;5.846;2024-01-07T12:31:01;5.00;76.30
52787;DHT22;38661;53.152;5.846;2024-01-07T12:33:27;4.90;74.90
52787;DHT22;38661;53.152;5.846;2024-01-07T12:35:54;5.10;76.10
52787;DHT22;38661;53.152;5.846;2024-01-07T12:38:24;5.10;75.10
52787;DHT22;38661;53.152;5.846;2024-01-07T12:40:51;5.40;76.60
52787;DHT22;38661;53.152;5.846;2024-01-07T12:43:17;5.50;74.30
52787;DHT22;38661;53.152;5.846;2024-01-07T12:45:42;5.60;76.00
52787;DHT22;38661;53.152;5.846;2024-01-07T12:48:09;5.50;74.50
52787;DHT22;38661;53.152;5.846;2024-01-07T12:50:35;5.50;75.50
52787;DHT22;38661;53.152;5.846;2024-01-07T12:53:01;5.40;72.00
52787;DHT22;38661;53.152;5.846;2024-01-07T12:55:27;5.40;73.00
52787;DHT22;38661;53.152;5.846;2024-01-07T12:57:53;5.10;70.70
52787;DHT22;38661;53.152;5.846;2024-01-07T13:00:20;5.30;72.30
52787;DHT22;38661;53.152;5.846;2024-01-07T13:02:46;5.40;73.80
52787;DHT22;38661;53.152;5.846;2024-01-07T13:05:12;5.40;73.50
52787;DHT22;38661;53.152;5.846;2024-01-07T13:07:38;5.50;72.60
52787;DHT22;38661;53.152;5.846;2024-01-07T13:10:04;5.60;73.90
52787;DHT22;38661;53.152;5.846;2024-01-07T13:12:31;5.60;72.60
52787;DHT22;38661;53.152;5.846;2024-01-07T13:14:57;5.60;72.20
52787;DHT22;38661;53.152;5.846;2024-01-07T13:17:23;5.50;71.00
52787;DHT22;38661;53.152;5.846;2024-01-07T13:19:49;5.40;70.20
52787;DHT22;38661;53.152;5.846;2024-01-07T13:22:14;5.40;70.50
52787;DHT22;38661;53.152;5.846;2024-01-07T13:24:40;5.60;71.80
52787;DHT22;38661;53.152;5.846;2024-01-07T13:27:07;5.60;71.40
52787;DHT22;38661;53.152;5.846;2024-01-07T13:29:34;5.80;72.80
52787;DHT22;38661;53.152;5.846;2024-01-07T13:32:00;5.70;71.50
52787;DHT22;38661;53.152;5.846;2024-01-07T13:34:26;5.70;71.80
52787;DHT22;38661;53.152;5.846;2024-01-07T13:36:52;5.70;70.50
52787;DHT22;38661;53.152;5.846;2024-01-07T13:39:19;5.60;69.40
52787;DHT22;38661;53.152;5.846;2024-01-07T13:41:46;5.60;70.70
52787;DHT22;38661;53.152;5.846;2024-01-07T13:44:12;5.70;71.40
52787;DHT22;38661;53.152;5.846;2024-01-07T13:46:46;5.70;70.20
52787;DHT22;38661;53.152;5.846;2024-01-07T13:49:15;5.80;72.00
52787;DHT22;38661;53.152;5.846;2024-01-07T13:51:42;5.80;70.70
52787;DHT22;38661;53.152;5.846;2024-01-07T13:54:08;5.80;71.60
52787;DHT22;38661;53.152;5.846;2024-01-07T13:56:36;5.80;71.20
52787;DHT22;38661;53.152;5.846;2024-01-07T13:59:03;5.90;71.20
52787;DHT22;38661;53.152;5.846;2024-01-07T14:01:29;6.00;71.20
52787;DHT22;38661;53.152;5.846;2024-01-07T14:03:55;5.90;69.90
52787;DHT22;38661;53.152;5.846;2024-01-07T14:06:21;5.90;71.10
52787;DHT22;38661;53.152;5.846;2024-01-07T14:08:47;5.70;71.00
52787;DHT22;38661;53.152;5.846;2024-01-07T14:11:13;5.60;71.40
52787;DHT22;38661;53.152;5.846;2024-01-07T14:13:38;5.50;71.40
52787;DHT22;38661;53.152;5.846;2024-01-07T14:16:04;5.40;72.00
52787;DHT22;38661;53.152;5.846;2024-01-07T14:18:30;5.20;72.40
52787;DHT22;38661;53.152;5.846;2024-01-07T14:20:56;5.10;73.00
52787;DHT22;38661;53.152;5.846;2024-01-07T14:23:22;4.80;73.10
52787;DHT22;38661;53.152;5.846;2024-01-07T14:25:47;4.80;73.60
52787;DHT22;38661;53.152;5.846;2024-01-07T14:28:13;4.80;72.40
52787;DHT22;38661;53.152;5.846;2024-01-07T14:30:39;5.10;73.50
52787;DHT22;38661;53.152;5.846;2024-01-07T14:33:05;5.10;73.30
52787;DHT22;38661;53.152;5.846;2024-01-07T14:35:30;5.00;72.50
52787;DHT22;38661;53.152;5.846;2024-01-07T14:37:58;4.60;72.70
52787;DHT22;38661;53.152;5.846;2024-01-07T14:40:25;4.30;74.00
52787;DHT22;38661;53.152;5.846;2024-01-07T14:42:51;3.80;73.90
52787;DHT22;38661;53.152;5.846;2024-01-07T14:45:20;3.60;75.20
52787;DHT22;38661;53.152;5.846;2024-01-07T14:47:46;3.30;75.90
52787;DHT22;38661;53.152;5.846;2024-01-07T14:50:12;3.10;76.50
52787;DHT22;38661;53.152;5.846;2024-01-07T14:52:38;2.90;77.10
52787;DHT22;38661;53.152;5.846;2024-01-07T14:55:04;2.70;77.50
52787;DHT22;38661;53.152;5.846;2024-01-07T14:57:30;2.60;78.10
52787;DHT22;38661;53.152;5.846;2024-01-07T14:59:55;2.50;78.30
52787;DHT22;38661;53.152;5.846;2024-01-07T15:02:21;2.40;78.90
52787;DHT22;38661;53.152;5.846;2024-01-07T15:04:47;2.20;79.10
52787;DHT22;38661;53.152;5.846;2024-01-07T15:07:13;2.10;79.60
52787;DHT22;38661;53.152;5.846;2024-01-07T15:09:39;2.10;79.80
52787;DHT22;38661;53.152;5.846;2024-01-07T15:12:07;1.90;80.10
52787;DHT22;38661;53.152;5.846;2024-01-07T15:14:32;1.90;80.20
52787;DHT22;38661;53.152;5.846;2024-01-07T15:16:59;1.70;80.30
52787;DHT22;38661;53.152;5.846;2024-01-07T15:19:25;1.60;80.30
52787;DHT22;38661;53.152;5.846;2024-01-07T15:21:51;1.50;80.70
52787;DHT22;38661;53.152;5.846;2024-01-07T15:24:16;1.50;81.00
52787;DHT22;38661;53.152;5.846;2024-01-07T15:26:42;1.40;81.20
52787;DHT22;38661;53.152;5.846;2024-01-07T15:29:08;1.40;81.40
52787;DHT22;38661;53.152;5.846;2024-01-07T15:31:34;1.30;81.60
52787;DHT22;38661;53.152;5.846;2024-01-07T15:33:59;1.30;81.80
52787;DHT22;38661;53.152;5.846;2024-01-07T15:36:25;1.10;81.90
52787;DHT22;38661;53.152;5.846;2024-01-07T15:38:50;1.10;82.10
52787;DHT22;38661;53.152;5.846;2024-01-07T15:41:16;1.10;82.40
52787;DHT22;38661;53.152;5.846;2024-01-07T15:43:42;1.10;82.40
52787;DHT22;38661;53.152;5.846;2024-01-07T15:46:08;1.10;82.50